sensor_id;sensor_type;location;lat;lon;timestamp;P1;durP1;ratioP1;P2;durP2;ratioP2
51828;SDS011;37881;48.024;8.774;2023-02-18T00:00:26;5.35;;;2.03;;
51828;SDS011;37881;48.024;8.774;2023-02-18T00:02:54;3.00;;;1.38;;
51828;SDS011;37881;48.024;8.774;2023-02-18T00:05:23;4.10;;;1.65;;
51828;SDS011;37881;48.024;8.774;2023-02-18T00:07:50;3.00;;;1.53;;
51828;SDS011;37881;48.024;8.774;2023-02-18T00:10:17;5.35;;;2.00;;
51828;SDS011;37881;48.024;8.774;2023-02-18T00:12:43;3.10;;;1.83;;
51828;SDS011;37881;48.024;8.774;2023-02-18T00:15:10;2.90;;;1.58;;
51828;SDS011;37881;48.024;8.774;2023-02-18T00:17:38;6.18;;;2.35;;
51828;SDS011;37881;48.024;8.774;2023-02-18T00:20:05;3.63;;;1.77;;
51828;SDS011;37881;48.024;8.774;2023-02-18T00:22:32;4.18;;;1.70;;
51828;SDS011;37881;48.024;8.774;2023-02-18T00:24:59;3.65;;;1.70;;
51828;SDS011;37881;48.024;8.774;2023-02-18T00:27:26;3.00;;;1.65;;
51828;SDS011;37881;48.024;8.774;2023-02-18T00:29:52;3.70;;;1.77;;
51828;SDS011;37881;48.024;8.774;2023-02-18T00:32:19;3.13;;;1.70;;
51828;SDS011;37881;48.024;8.774;2023-02-18T00:34:46;3.40;;;1.80;;
51828;SDS011;37881;48.024;8.774;2023-02-18T00:37:12;4.28;;;1.90;;
51828;SDS011;37881;48.024;8.774;2023-02-18T00:39:39;3.75;;;1.83;;
51828;SDS011;37881;48.024;8.774;2023-02-18T00:42:06;6.28;;;2.33;;
51828;SDS011;37881;48.024;8.774;2023-02-18T00:44:32;4.57;;;1.97;;
51828;SDS011;37881;48.024;8.774;2023-02-18T00:46:59;7.45;;;2.75;;
51828;SDS011;37881;48.024;8.774;2023-02-18T00:49:26;4.85;;;2.20;;
51828;SDS011;37881;48.024;8.774;2023-02-18T00:51:52;3.25;;;1.90;;
51828;SDS011;37881;48.024;8.774;2023-02-18T00:54:19;3.70;;;2.03;;
51828;SDS011;37881;48.024;8.774;2023-02-18T00:56:46;3.23;;;1.90;;
51828;SDS011;37881;48.024;8.774;2023-02-18T00:59:13;3.40;;;1.80;;
51828;SDS011;37881;48.024;8.774;2023-02-18T01:01:39;2.90;;;1.73;;
51828;SDS011;37881;48.024;8.774;2023-02-18T01:04:06;3.83;;;2.05;;
51828;SDS011;37881;48.024;8.774;2023-02-18T01:06:33;3.65;;;1.75;;
51828;SDS011;37881;48.024;8.774;2023-02-18T01:09:00;3.63;;;1.70;;
51828;SDS011;37881;48.024;8.774;2023-02-18T01:11:26;3.33;;;1.70;;
51828;SDS011;37881;48.024;8.774;2023-02-18T01:13:53;3.90;;;1.80;;
51828;SDS011;37881;48.024;8.774;2023-02-18T01:16:20;3.03;;;1.60;;
51828;SDS011;37881;48.024;8.774;2023-02-18T01:18:47;3.30;;;1.73;;
51828;SDS011;37881;48.024;8.774;2023-02-18T01:21:13;6.80;;;3.17;;
51828;SDS011;37881;48.024;8.774;2023-02-18T01:23:41;4.25;;;1.90;;
51828;SDS011;37881;48.024;8.774;2023-02-18T01:26:09;2.50;;;1.50;;
51828;SDS011;37881;48.024;8.774;2023-02-18T01:28:37;2.53;;;1.30;;
51828;SDS011;37881;48.024;8.774;2023-02-18T01:31:07;2.63;;;1.50;;
51828;SDS011;37881;48.024;8.774;2023-02-18T01:33:36;3.90;;;1.83;;
51828;SDS011;37881;48.024;8.774;2023-02-18T01:36:03;3.90;;;1.60;;
51828;SDS011;37881;48.024;8.774;2023-02-18T01:38:30;2.50;;;1.30;;
51828;SDS011;37881;48.024;8.774;2023-02-18T01:40:57;2.55;;;1.17;;
51828;SDS011;37881;48.024;8.774;2023-02-18T01:43:23;6.75;;;3.50;;
51828;SDS011;37881;48.024;8.774;2023-02-18T01:45:58;5.70;;;2.60;;
51828;SDS011;37881;48.024;8.774;2023-02-18T01:48:31;3.78;;;1.95;;
51828;SDS011;37881;48.024;8.774;2023-02-18T01:51:09;3.97;;;2.10;;
51828;SDS011;37881;48.024;8.774;2023-02-18T01:53:45;3.55;;;1.35;;
51828;SDS011;37881;48.024;8.774;2023-02-18T01:56:19;2.50;;;1.27;;
51828;SDS011;37881;48.024;8.774;2023-02-18T01:58:51;1.93;;;1.07;;
51828;SDS011;37881;48.024;8.774;2023-02-18T02:01:20;2.00;;;1.10;;
51828;SDS011;37881;48.024;8.774;2023-02-18T02:03:47;2.72;;;1.50;;
51828;SDS011;37881;48.024;8.774;2023-02-18T02:06:18;2.70;;;1.35;;
51828;SDS011;37881;48.024;8.774;2023-02-18T02:08:47;2.15;;;1.23;;
51828;SDS011;37881;48.024;8.774;2023-02-18T02:11:22;2.30;;;1.30;;
51828;SDS011;37881;48.024;8.774;2023-02-18T02:16:44;2.10;;;1.20;;
51828;SDS011;37881;48.024;8.774;2023-02-18T02:36:26;1.88;;;1.00;;
51828;SDS011;37881;48.024;8.774;2023-02-18T02:41:46;1.80;;;0.95;;
51828;SDS011;37881;48.024;8.774;2023-02-18T02:44:21;2.22;;;1.10;;
51828;SDS011;37881;48.024;8.774;2023-02-18T02:47:07;2.30;;;1.00;;
51828;SDS011;37881;48.024;8.774;2023-02-18T02:52:56;1.97;;;1.10;;
51828;SDS011;37881;48.024;8.774;2023-02-18T02:55:27;2.20;;;1.00;;
51828;SDS011;37881;48.024;8.774;2023-02-18T02:57:54;2.10;;;1.05;;
51828;SDS011;37881;48.024;8.774;2023-02-18T03:00:26;1.95;;;1.02;;
51828;SDS011;37881;48.024;8.774;2023-02-18T03:05:47;2.40;;;1.10;;
51828;SDS011;37881;48.024;8.774;2023-02-18T03:08:40;2.33;;;1.20;;
51828;SDS011;37881;48.024;8.774;2023-02-18T03:11:20;4.50;;;1.80;;
51828;SDS011;37881;48.024;8.774;2023-02-18T03:16:22;2.00;;;0.90;;
51828;SDS011;37881;48.024;8.774;2023-02-18T03:19:09;1.97;;;1.10;;
51828;SDS011;37881;48.024;8.774;2023-02-18T03:21:39;1.90;;;0.90;;
51828;SDS011;37881;48.024;8.774;2023-02-18T03:24:19;1.83;;;0.95;;
51828;SDS011;37881;48.024;8.774;2023-02-18T03:26:56;1.90;;;1.00;;
51828;SDS011;37881;48.024;8.774;2023-02-18T03:29:27;2.05;;;1.20;;
51828;SDS011;37881;48.024;8.774;2023-02-18T03:31:56;2.00;;;1.10;;
51828;SDS011;37881;48.024;8.774;2023-02-18T03:34:29;2.20;;;1.05;;
51828;SDS011;37881;48.024;8.774;2023-02-18T03:36:58;2.05;;;1.10;;
51828;SDS011;37881;48.024;8.774;2023-02-18T03:39:28;2.55;;;1.10;;
51828;SDS011;37881;48.024;8.774;2023-02-18T03:41:56;2.80;;;1.42;;
51828;SDS011;37881;48.024;8.774;2023-02-18T03:44:23;6.30;;;4.47;;
51828;SDS011;37881;48.024;8.774;2023-02-18T03:46:51;2.95;;;1.95;;
51828;SDS011;37881;48.024;8.774;2023-02-18T03:49:17;2.60;;;1.58;;
51828;SDS011;37881;48.024;8.774;2023-02-18T03:51:44;2.60;;;1.25;;
51828;SDS011;37881;48.024;8.774;2023-02-18T03:54:11;2.20;;;1.50;;
51828;SDS011;37881;48.024;8.774;2023-02-18T03:56:39;2.30;;;1.37;;
51828;SDS011;37881;48.024;8.774;2023-02-18T03:59:06;2.40;;;1.30;;
51828;SDS011;37881;48.024;8.774;2023-02-18T04:01:34;2.53;;;1.42;;
51828;SDS011;37881;48.024;8.774;2023-02-18T04:04:01;2.70;;;1.33;;
51828;SDS011;37881;48.024;8.774;2023-02-18T04:06:28;4.38;;;2.20;;
51828;SDS011;37881;48.024;8.774;2023-02-18T04:08:55;4.87;;;2.13;;
51828;SDS011;37881;48.024;8.774;2023-02-18T04:11:22;2.83;;;1.40;;
51828;SDS011;37881;48.024;8.774;2023-02-18T04:13:48;2.20;;;1.20;;
51828;SDS011;37881;48.024;8.774;2023-02-18T04:16:15;2.10;;;1.17;;
51828;SDS011;37881;48.024;8.774;2023-02-18T04:18:42;2.53;;;1.20;;
51828;SDS011;37881;48.024;8.774;2023-02-18T04:21:08;2.07;;;1.10;;
51828;SDS011;37881;48.024;8.774;2023-02-18T04:23:35;1.80;;;0.98;;
51828;SDS011;37881;48.024;8.774;2023-02-18T04:26:02;3.33;;;1.20;;
51828;SDS011;37881;48.024;8.774;2023-02-18T04:28:29;2.30;;;1.08;;
51828;SDS011;37881;48.024;8.774;2023-02-18T04:30:55;2.53;;;1.40;;
51828;SDS011;37881;48.024;8.774;2023-02-18T04:33:22;2.77;;;1.40;;
51828;SDS011;37881;48.024;8.774;2023-02-18T04:35:49;2.40;;;1.42;;
51828;SDS011;37881;48.024;8.774;2023-02-18T04:38:15;2.40;;;1.50;;
51828;SDS011;37881;48.024;8.774;2023-02-18T04:40:42;2.97;;;1.33;;
51828;SDS011;37881;48.024;8.774;2023-02-18T04:43:09;2.67;;;1.63;;
51828;SDS011;37881;48.024;8.774;2023-02-18T04:45:35;2.50;;;1.40;;
51828;SDS011;37881;48.024;8.774;2023-02-18T04:48:02;2.83;;;1.52;;
51828;SDS011;37881;48.024;8.774;2023-02-18T04:50:29;2.70;;;1.70;;
51828;SDS011;37881;48.024;8.774;2023-02-18T04:52:56;3.00;;;1.40;;
51828;SDS011;37881;48.024;8.774;2023-02-18T04:55:22;2.28;;;1.35;;
51828;SDS011;37881;48.024;8.774;2023-02-18T04:57:49;2.40;;;1.30;;
51828;SDS011;37881;48.024;8.774;2023-02-18T05:00:17;2.78;;;1.50;;
51828;SDS011;37881;48.024;8.774;2023-02-18T05:02:45;2.97;;;1.48;;
51828;SDS011;37881;48.024;8.774;2023-02-18T05:05:12;2.42;;;1.33;;
51828;SDS011;37881;48.024;8.774;2023-02-18T05:07:39;3.03;;;1.50;;
51828;SDS011;37881;48.024;8.774;2023-02-18T05:10:11;2.93;;;1.27;;
51828;SDS011;37881;48.024;8.774;2023-02-18T05:12:41;2.90;;;1.40;;
51828;SDS011;37881;48.024;8.774;2023-02-18T05:15:08;2.85;;;1.50;;
51828;SDS011;37881;48.024;8.774;2023-02-18T05:17:35;2.50;;;1.30;;
51828;SDS011;37881;48.024;8.774;2023-02-18T05:20:02;2.72;;;1.60;;
51828;SDS011;37881;48.024;8.774;2023-02-18T05:22:29;2.20;;;1.30;;
51828;SDS011;37881;48.024;8.774;2023-02-18T05:24:55;2.63;;;1.20;;
51828;SDS011;37881;48.024;8.774;2023-02-18T05:27:22;2.40;;;1.30;;
51828;SDS011;37881;48.024;8.774;2023-02-18T05:29:49;2.40;;;1.40;;
51828;SDS011;37881;48.024;8.774;2023-02-18T05:32:15;2.47;;;1.40;;
51828;SDS011;37881;48.024;8.774;2023-02-18T05:34:42;2.50;;;1.33;;
51828;SDS011;37881;48.024;8.774;2023-02-18T05:37:09;2.40;;;1.30;;
51828;SDS011;37881;48.024;8.774;2023-02-18T05:39:36;3.38;;;1.35;;
51828;SDS011;37881;48.024;8.774;2023-02-18T05:42:02;2.47;;;1.30;;
51828;SDS011;37881;48.024;8.774;2023-02-18T05:44:29;2.20;;;1.20;;
51828;SDS011;37881;48.024;8.774;2023-02-18T05:47:03;3.13;;;1.37;;
51828;SDS011;37881;48.024;8.774;2023-02-18T05:49:37;2.47;;;1.20;;
51828;SDS011;37881;48.024;8.774;2023-02-18T05:52:05;2.30;;;1.30;;
51828;SDS011;37881;48.024;8.774;2023-02-18T05:54:32;2.33;;;1.30;;
51828;SDS011;37881;48.024;8.774;2023-02-18T05:57:00;2.30;;;1.40;;
51828;SDS011;37881;48.024;8.774;2023-02-18T05:59:27;2.30;;;1.47;;
51828;SDS011;37881;48.024;8.774;2023-02-18T06:01:54;2.08;;;1.27;;
51828;SDS011;37881;48.024;8.774;2023-02-18T06:04:21;2.40;;;1.50;;
51828;SDS011;37881;48.024;8.774;2023-02-18T06:06:48;2.30;;;1.40;;
51828;SDS011;37881;48.024;8.774;2023-02-18T06:09:15;2.10;;;1.20;;
51828;SDS011;37881;48.024;8.774;2023-02-18T06:11:42;2.30;;;1.30;;
51828;SDS011;37881;48.024;8.774;2023-02-18T06:14:09;2.40;;;1.30;;
51828;SDS011;37881;48.024;8.774;2023-02-18T06:16:35;3.05;;;1.90;;
51828;SDS011;37881;48.024;8.774;2023-02-18T06:19:02;2.60;;;1.20;;
51828;SDS011;37881;48.024;8.774;2023-02-18T06:21:29;4.65;;;1.48;;
51828;SDS011;37881;48.024;8.774;2023-02-18T06:23:56;3.20;;;1.33;;
51828;SDS011;37881;48.024;8.774;2023-02-18T06:26:22;3.10;;;1.30;;
51828;SDS011;37881;48.024;8.774;2023-02-18T06:28:49;3.75;;;1.58;;
51828;SDS011;37881;48.024;8.774;2023-02-18T06:31:16;5.75;;;1.80;;
51828;SDS011;37881;48.024;8.774;2023-02-18T06:33:43;2.88;;;1.77;;
51828;SDS011;37881;48.024;8.774;2023-02-18T06:36:10;6.13;;;1.63;;
51828;SDS011;37881;48.024;8.774;2023-02-18T06:38:38;3.65;;;1.40;;
51828;SDS011;37881;48.024;8.774;2023-02-18T06:41:08;3.28;;;1.70;;
51828;SDS011;37881;48.024;8.774;2023-02-18T06:43:35;2.95;;;1.40;;
51828;SDS011;37881;48.024;8.774;2023-02-18T06:46:02;6.28;;;2.95;;
51828;SDS011;37881;48.024;8.774;2023-02-18T06:48:30;2.40;;;1.30;;
51828;SDS011;37881;48.024;8.774;2023-02-18T06:50:57;4.70;;;1.48;;
51828;SDS011;37881;48.024;8.774;2023-02-18T06:53:24;10.23;;;2.80;;
51828;SDS011;37881;48.024;8.774;2023-02-18T06:55:51;5.63;;;1.83;;
51828;SDS011;37881;48.024;8.774;2023-02-18T06:58:17;3.55;;;1.40;;
51828;SDS011;37881;48.024;8.774;2023-02-18T07:00:44;3.07;;;1.50;;
51828;SDS011;37881;48.024;8.774;2023-02-18T07:03:14;5.20;;;1.50;;
51828;SDS011;37881;48.024;8.774;2023-02-18T07:05:41;2.33;;;1.30;;
51828;SDS011;37881;48.024;8.774;2023-02-18T07:08:08;4.78;;;1.95;;
51828;SDS011;37881;48.024;8.774;2023-02-18T07:10:35;3.90;;;1.90;;
51828;SDS011;37881;48.024;8.774;2023-02-18T07:13:01;6.67;;;2.27;;
51828;SDS011;37881;48.024;8.774;2023-02-18T07:15:28;2.92;;;1.42;;
51828;SDS011;37881;48.024;8.774;2023-02-18T07:17:55;3.35;;;1.63;;
51828;SDS011;37881;48.024;8.774;2023-02-18T07:20:22;7.20;;;3.72;;
51828;SDS011;37881;48.024;8.774;2023-02-18T07:22:49;6.40;;;2.42;;
51828;SDS011;37881;48.024;8.774;2023-02-18T07:25:16;3.47;;;1.53;;
51828;SDS011;37881;48.024;8.774;2023-02-18T07:27:43;6.70;;;2.63;;
51828;SDS011;37881;48.024;8.774;2023-02-18T07:30:10;2.10;;;1.23;;
51828;SDS011;37881;48.024;8.774;2023-02-18T07:32:37;17.10;;;5.78;;
51828;SDS011;37881;48.024;8.774;2023-02-18T07:35:04;3.88;;;1.83;;
51828;SDS011;37881;48.024;8.774;2023-02-18T07:37:31;11.37;;;4.17;;
51828;SDS011;37881;48.024;8.774;2023-02-18T07:39:58;3.08;;;1.10;;
51828;SDS011;37881;48.024;8.774;2023-02-18T07:42:25;7.35;;;3.03;;
51828;SDS011;37881;48.024;8.774;2023-02-18T07:44:52;6.35;;;2.88;;
51828;SDS011;37881;48.024;8.774;2023-02-18T07:47:18;8.15;;;3.25;;
51828;SDS011;37881;48.024;8.774;2023-02-18T07:49:45;10.87;;;3.90;;
51828;SDS011;37881;48.024;8.774;2023-02-18T07:52:13;3.33;;;1.38;;
51828;SDS011;37881;48.024;8.774;2023-02-18T07:54:40;15.10;;;5.13;;
51828;SDS011;37881;48.024;8.774;2023-02-18T07:57:08;6.82;;;3.10;;
51828;SDS011;37881;48.024;8.774;2023-02-18T07:59:34;4.30;;;1.88;;
51828;SDS011;37881;48.024;8.774;2023-02-18T08:02:02;3.90;;;1.77;;
51828;SDS011;37881;48.024;8.774;2023-02-18T08:04:31;7.68;;;3.13;;
51828;SDS011;37881;48.024;8.774;2023-02-18T08:06:57;8.00;;;3.00;;
51828;SDS011;37881;48.024;8.774;2023-02-18T08:09:24;3.92;;;1.55;;
51828;SDS011;37881;48.024;8.774;2023-02-18T08:11:51;12.70;;;4.72;;
51828;SDS011;37881;48.024;8.774;2023-02-18T08:14:17;9.53;;;3.97;;
51828;SDS011;37881;48.024;8.774;2023-02-18T08:16:44;3.67;;;1.90;;
51828;SDS011;37881;48.024;8.774;2023-02-18T08:19:11;9.63;;;4.45;;
51828;SDS011;37881;48.024;8.774;2023-02-18T08:21:38;20.73;;;9.27;;
51828;SDS011;37881;48.024;8.774;2023-02-18T08:24:04;34.13;;;15.05;;
51828;SDS011;37881;48.024;8.774;2023-02-18T08:26:33;19.10;;;8.53;;
51828;SDS011;37881;48.024;8.774;2023-02-18T08:29:00;26.60;;;12.82;;
51828;SDS011;37881;48.024;8.774;2023-02-18T08:31:27;14.25;;;7.97;;
51828;SDS011;37881;48.024;8.774;2023-02-18T08:33:56;4.60;;;2.47;;
51828;SDS011;37881;48.024;8.774;2023-02-18T08:36:24;4.35;;;2.38;;
51828;SDS011;37881;48.024;8.774;2023-02-18T08:38:51;10.67;;;6.60;;
51828;SDS011;37881;48.024;8.774;2023-02-18T08:41:17;3.47;;;2.00;;
51828;SDS011;37881;48.024;8.774;2023-02-18T08:43:45;2.72;;;1.50;;
51828;SDS011;37881;48.024;8.774;2023-02-18T08:46:12;2.50;;;1.33;;
51828;SDS011;37881;48.024;8.774;2023-02-18T08:48:42;2.88;;;1.48;;
51828;SDS011;37881;48.024;8.774;2023-02-18T08:51:11;3.37;;;1.57;;
51828;SDS011;37881;48.024;8.774;2023-02-18T08:53:42;2.33;;;1.33;;
51828;SDS011;37881;48.024;8.774;2023-02-18T08:56:08;3.28;;;1.67;;
51828;SDS011;37881;48.024;8.774;2023-02-18T08:58:36;2.60;;;1.42;;
51828;SDS011;37881;48.024;8.774;2023-02-18T09:01:06;2.85;;;1.30;;
51828;SDS011;37881;48.024;8.774;2023-02-18T09:03:35;3.63;;;1.60;;
51828;SDS011;37881;48.024;8.774;2023-02-18T09:06:02;4.60;;;1.70;;
51828;SDS011;37881;48.024;8.774;2023-02-18T09:08:29;7.32;;;2.10;;
51828;SDS011;37881;48.024;8.774;2023-02-18T09:10:56;3.70;;;1.60;;
51828;SDS011;37881;48.024;8.774;2023-02-18T09:13:24;5.03;;;1.80;;
51828;SDS011;37881;48.024;8.774;2023-02-18T09:15:56;2.70;;;1.33;;
51828;SDS011;37881;48.024;8.774;2023-02-18T09:18:24;7.63;;;2.40;;
51828;SDS011;37881;48.024;8.774;2023-02-18T09:20:54;10.57;;;2.88;;
51828;SDS011;37881;48.024;8.774;2023-02-18T09:23:22;4.75;;;1.60;;
51828;SDS011;37881;48.024;8.774;2023-02-18T09:25:49;5.68;;;1.90;;
51828;SDS011;37881;48.024;8.774;2023-02-18T09:28:16;5.80;;;1.80;;
51828;SDS011;37881;48.024;8.774;2023-02-18T09:30:42;7.45;;;2.30;;
51828;SDS011;37881;48.024;8.774;2023-02-18T09:33:09;3.83;;;1.65;;
51828;SDS011;37881;48.024;8.774;2023-02-18T09:35:42;4.75;;;1.80;;
51828;SDS011;37881;48.024;8.774;2023-02-18T09:38:11;6.97;;;2.40;;
51828;SDS011;37881;48.024;8.774;2023-02-18T09:40:47;6.60;;;1.93;;
51828;SDS011;37881;48.024;8.774;2023-02-18T09:43:21;7.18;;;2.20;;
51828;SDS011;37881;48.024;8.774;2023-02-18T09:45:54;6.68;;;2.20;;
51828;SDS011;37881;48.024;8.774;2023-02-18T09:48:24;3.85;;;1.52;;
51828;SDS011;37881;48.024;8.774;2023-02-18T09:50:54;2.83;;;1.50;;
51828;SDS011;37881;48.024;8.774;2023-02-18T09:53:21;7.23;;;1.40;;
51828;SDS011;37881;48.024;8.774;2023-02-18T09:55:50;4.93;;;1.70;;
51828;SDS011;37881;48.024;8.774;2023-02-18T09:58:31;4.18;;;1.30;;
51828;SDS011;37881;48.024;8.774;2023-02-18T10:01:10;3.55;;;1.25;;
51828;SDS011;37881;48.024;8.774;2023-02-18T10:03:44;3.20;;;1.55;;
51828;SDS011;37881;48.024;8.774;2023-02-18T10:08:47;7.03;;;1.60;;
51828;SDS011;37881;48.024;8.774;2023-02-18T10:11:29;9.38;;;2.20;;
51828;SDS011;37881;48.024;8.774;2023-02-18T10:13:57;6.45;;;1.52;;
51828;SDS011;37881;48.024;8.774;2023-02-18T10:16:29;5.38;;;2.30;;
51828;SDS011;37881;48.024;8.774;2023-02-18T10:18:57;3.33;;;1.27;;
51828;SDS011;37881;48.024;8.774;2023-02-18T10:21:27;5.88;;;1.80;;
51828;SDS011;37881;48.024;8.774;2023-02-18T10:24:00;5.57;;;1.75;;
51828;SDS011;37881;48.024;8.774;2023-02-18T10:26:46;5.95;;;1.45;;
51828;SDS011;37881;48.024;8.774;2023-02-18T10:29:15;11.02;;;2.33;;
51828;SDS011;37881;48.024;8.774;2023-02-18T10:31:58;5.77;;;2.10;;
51828;SDS011;37881;48.024;8.774;2023-02-18T10:35:21;10.55;;;2.13;;
51828;SDS011;37881;48.024;8.774;2023-02-18T10:51:41;12.98;;;2.58;;
51828;SDS011;37881;48.024;8.774;2023-02-18T10:54:16;6.30;;;2.10;;
51828;SDS011;37881;48.024;8.774;2023-02-18T10:56:47;11.05;;;2.42;;
51828;SDS011;37881;48.024;8.774;2023-02-18T11:01:52;3.45;;;1.20;;
51828;SDS011;37881;48.024;8.774;2023-02-18T11:04:23;7.15;;;1.20;;
51828;SDS011;37881;48.024;8.774;2023-02-18T11:06:53;3.40;;;1.00;;
51828;SDS011;37881;48.024;8.774;2023-02-18T11:09:25;6.80;;;1.50;;
51828;SDS011;37881;48.024;8.774;2023-02-18T11:12:12;3.07;;;0.97;;
51828;SDS011;37881;48.024;8.774;2023-02-18T11:14:46;5.20;;;1.60;;
51828;SDS011;37881;48.024;8.774;2023-02-18T11:17:27;3.90;;;1.17;;
51828;SDS011;37881;48.024;8.774;2023-02-18T11:19:57;12.50;;;1.65;;
51828;SDS011;37881;48.024;8.774;2023-02-18T11:22:28;8.05;;;2.00;;
51828;SDS011;37881;48.024;8.774;2023-02-18T11:24:59;10.37;;;1.50;;
51828;SDS011;37881;48.024;8.774;2023-02-18T11:30:32;2.22;;;1.20;;
51828;SDS011;37881;48.024;8.774;2023-02-18T11:33:07;3.08;;;1.40;;
51828;SDS011;37881;48.024;8.774;2023-02-18T11:35:47;2.10;;;1.00;;
51828;SDS011;37881;48.024;8.774;2023-02-18T11:38:25;5.40;;;1.40;;
51828;SDS011;37881;48.024;8.774;2023-02-18T11:40:53;3.58;;;1.20;;
51828;SDS011;37881;48.024;8.774;2023-02-18T11:43:21;5.05;;;1.90;;
51828;SDS011;37881;48.024;8.774;2023-02-18T11:45:48;4.18;;;1.60;;
51828;SDS011;37881;48.024;8.774;2023-02-18T11:48:35;4.00;;;1.50;;
51828;SDS011;37881;48.024;8.774;2023-02-18T11:51:02;3.87;;;1.20;;
51828;SDS011;37881;48.024;8.774;2023-02-18T11:53:36;2.60;;;1.10;;
51828;SDS011;37881;48.024;8.774;2023-02-18T11:56:04;4.30;;;1.30;;
51828;SDS011;37881;48.024;8.774;2023-02-18T11:58:42;6.72;;;1.45;;
51828;SDS011;37881;48.024;8.774;2023-02-18T12:01:24;4.85;;;2.00;;
51828;SDS011;37881;48.024;8.774;2023-02-18T12:04:06;6.17;;;1.60;;
51828;SDS011;37881;48.024;8.774;2023-02-18T12:06:34;6.30;;;1.40;;
51828;SDS011;37881;48.024;8.774;2023-02-18T12:09:13;9.25;;;1.75;;
51828;SDS011;37881;48.024;8.774;2023-02-18T12:11:54;4.38;;;1.75;;
51828;SDS011;37881;48.024;8.774;2023-02-18T12:14:25;11.38;;;1.70;;
51828;SDS011;37881;48.024;8.774;2023-02-18T12:17:03;5.47;;;2.00;;
51828;SDS011;37881;48.024;8.774;2023-02-18T12:27:31;1.92;;;0.90;;
51828;SDS011;37881;48.024;8.774;2023-02-18T12:30:20;2.10;;;1.10;;
51828;SDS011;37881;48.024;8.774;2023-02-18T12:38:53;6.38;;;1.80;;
51828;SDS011;37881;48.024;8.774;2023-02-18T13:16:19;5.63;;;2.42;;
51828;SDS011;37881;48.024;8.774;2023-02-18T13:18:53;3.90;;;1.60;;
51828;SDS011;37881;48.024;8.774;2023-02-18T13:21:27;2.72;;;1.23;;
51828;SDS011;37881;48.024;8.774;2023-02-18T13:24:02;3.83;;;1.20;;
51828;SDS011;37881;48.024;8.774;2023-02-18T13:26:35;4.05;;;1.27;;
51828;SDS011;37881;48.024;8.774;2023-02-18T13:32:00;2.40;;;1.10;;
51828;SDS011;37881;48.024;8.774;2023-02-18T13:40:21;2.95;;;1.60;;
51828;SDS011;37881;48.024;8.774;2023-02-18T13:42:51;2.97;;;1.60;;
51828;SDS011;37881;48.024;8.774;2023-02-18T13:45:22;3.83;;;1.50;;
51828;SDS011;37881;48.024;8.774;2023-02-18T13:47:59;3.33;;;1.33;;
51828;SDS011;37881;48.024;8.774;2023-02-18T13:50:31;3.23;;;1.30;;
51828;SDS011;37881;48.024;8.774;2023-02-18T13:55:51;10.88;;;2.03;;
51828;SDS011;37881;48.024;8.774;2023-02-18T13:58:22;2.47;;;1.30;;
51828;SDS011;37881;48.024;8.774;2023-02-18T14:00:52;3.20;;;1.40;;
51828;SDS011;37881;48.024;8.774;2023-02-18T14:03:32;2.20;;;1.37;;
51828;SDS011;37881;48.024;8.774;2023-02-18T14:05:59;4.85;;;1.30;;
51828;SDS011;37881;48.024;8.774;2023-02-18T14:08:36;2.30;;;1.40;;
51828;SDS011;37881;48.024;8.774;2023-02-18T14:16:21;7.47;;;1.60;;
51828;SDS011;37881;48.024;8.774;2023-02-18T14:18:58;6.93;;;1.30;;
51828;SDS011;37881;48.024;8.774;2023-02-18T14:21:35;2.72;;;1.60;;
51828;SDS011;37881;48.024;8.774;2023-02-18T14:24:04;2.53;;;1.40;;
51828;SDS011;37881;48.024;8.774;2023-02-18T14:26:34;2.50;;;1.33;;
51828;SDS011;37881;48.024;8.774;2023-02-18T14:29:06;4.80;;;1.60;;
51828;SDS011;37881;48.024;8.774;2023-02-18T14:31:43;3.20;;;1.80;;
51828;SDS011;37881;48.024;8.774;2023-02-18T14:50:55;3.72;;;2.00;;
51828;SDS011;37881;48.024;8.774;2023-02-18T14:53:25;3.15;;;1.85;;
51828;SDS011;37881;48.024;8.774;2023-02-18T14:55:54;2.87;;;1.50;;
51828;SDS011;37881;48.024;8.774;2023-02-18T15:01:12;3.60;;;2.30;;
51828;SDS011;37881;48.024;8.774;2023-02-18T15:03:51;2.92;;;1.60;;
51828;SDS011;37881;48.024;8.774;2023-02-18T15:06:40;2.80;;;1.80;;
51828;SDS011;37881;48.024;8.774;2023-02-18T15:09:19;4.07;;;1.80;;
51828;SDS011;37881;48.024;8.774;2023-02-18T15:11:54;3.10;;;1.60;;
51828;SDS011;37881;48.024;8.774;2023-02-18T15:14:28;3.05;;;1.70;;
51828;SDS011;37881;48.024;8.774;2023-02-18T15:16:57;3.25;;;1.80;;
51828;SDS011;37881;48.024;8.774;2023-02-18T15:19:26;3.22;;;1.77;;
51828;SDS011;37881;48.024;8.774;2023-02-18T15:21:58;3.30;;;2.03;;
51828;SDS011;37881;48.024;8.774;2023-02-18T15:26:57;4.18;;;1.85;;
51828;SDS011;37881;48.024;8.774;2023-02-18T15:29:27;3.60;;;1.70;;
51828;SDS011;37881;48.024;8.774;2023-02-18T15:31:56;3.20;;;1.90;;
51828;SDS011;37881;48.024;8.774;2023-02-18T15:34:26;3.33;;;1.60;;
51828;SDS011;37881;48.024;8.774;2023-02-18T15:36:55;2.80;;;1.60;;
51828;SDS011;37881;48.024;8.774;2023-02-18T15:39:22;5.78;;;2.03;;
51828;SDS011;37881;48.024;8.774;2023-02-18T15:42:09;5.32;;;1.77;;
51828;SDS011;37881;48.024;8.774;2023-02-18T15:44:45;2.83;;;1.83;;
51828;SDS011;37881;48.024;8.774;2023-02-18T15:47:15;2.97;;;1.70;;
51828;SDS011;37881;48.024;8.774;2023-02-18T15:49:44;4.70;;;1.90;;
51828;SDS011;37881;48.024;8.774;2023-02-18T15:52:13;4.43;;;2.05;;
51828;SDS011;37881;48.024;8.774;2023-02-18T15:54:40;3.08;;;2.00;;
51828;SDS011;37881;48.024;8.774;2023-02-18T15:57:08;5.43;;;1.90;;
51828;SDS011;37881;48.024;8.774;2023-02-18T15:59:46;4.77;;;2.30;;
51828;SDS011;37881;48.024;8.774;2023-02-18T16:02:22;3.72;;;2.00;;
51828;SDS011;37881;48.024;8.774;2023-02-18T16:04:53;2.67;;;1.75;;
51828;SDS011;37881;48.024;8.774;2023-02-18T16:07:30;4.18;;;2.25;;
51828;SDS011;37881;48.024;8.774;2023-02-18T16:10:07;3.65;;;1.90;;
51828;SDS011;37881;48.024;8.774;2023-02-18T16:12:34;7.20;;;2.50;;
51828;SDS011;37881;48.024;8.774;2023-02-18T16:15:04;3.55;;;1.95;;
51828;SDS011;37881;48.024;8.774;2023-02-18T16:17:31;3.00;;;1.80;;
51828;SDS011;37881;48.024;8.774;2023-02-18T16:19:59;7.63;;;2.10;;
51828;SDS011;37881;48.024;8.774;2023-02-18T16:25:12;4.13;;;1.80;;
51828;SDS011;37881;48.024;8.774;2023-02-18T16:27:51;3.53;;;2.30;;
51828;SDS011;37881;48.024;8.774;2023-02-18T16:30:26;5.03;;;2.72;;
51828;SDS011;37881;48.024;8.774;2023-02-18T16:32:55;3.67;;;2.35;;
51828;SDS011;37881;48.024;8.774;2023-02-18T16:35:23;7.10;;;3.00;;
51828;SDS011;37881;48.024;8.774;2023-02-18T16:37:54;4.10;;;2.43;;
51828;SDS011;37881;48.024;8.774;2023-02-18T16:40:35;4.18;;;2.10;;
51828;SDS011;37881;48.024;8.774;2023-02-18T16:45:38;4.35;;;2.40;;
51828;SDS011;37881;48.024;8.774;2023-02-18T16:48:14;5.05;;;3.28;;
51828;SDS011;37881;48.024;8.774;2023-02-18T16:50:45;4.87;;;2.60;;
51828;SDS011;37881;48.024;8.774;2023-02-18T16:53:14;5.35;;;3.00;;
51828;SDS011;37881;48.024;8.774;2023-02-18T16:55:41;3.15;;;2.03;;
51828;SDS011;37881;48.024;8.774;2023-02-18T16:58:08;3.70;;;2.10;;
51828;SDS011;37881;48.024;8.774;2023-02-18T17:00:34;8.10;;;2.63;;
51828;SDS011;37881;48.024;8.774;2023-02-18T17:03:01;4.90;;;2.87;;
51828;SDS011;37881;48.024;8.774;2023-02-18T17:05:30;6.88;;;4.40;;
51828;SDS011;37881;48.024;8.774;2023-02-18T17:08:11;7.45;;;3.90;;
51828;SDS011;37881;48.024;8.774;2023-02-18T17:10:44;6.05;;;4.05;;
51828;SDS011;37881;48.024;8.774;2023-02-18T17:13:22;5.68;;;3.40;;
51828;SDS011;37881;48.024;8.774;2023-02-18T17:15:51;3.80;;;2.13;;
51828;SDS011;37881;48.024;8.774;2023-02-18T17:18:20;4.72;;;2.20;;
51828;SDS011;37881;48.024;8.774;2023-02-18T17:20:47;4.43;;;2.70;;
51828;SDS011;37881;48.024;8.774;2023-02-18T17:23:16;3.85;;;2.20;;
51828;SDS011;37881;48.024;8.774;2023-02-18T17:25:46;5.47;;;2.80;;
51828;SDS011;37881;48.024;8.774;2023-02-18T17:28:14;5.33;;;3.60;;
51828;SDS011;37881;48.024;8.774;2023-02-18T17:30:45;3.85;;;2.60;;